createdAt,value
2017-07-14T00:00:16.628Z,0
2017-07-14T00:01:16.940Z,0
2017-07-14T00:02:16.822Z,0
2017-07-14T00:03:17.171Z,0
2017-07-14T00:04:16.869Z,0
2017-07-14T00:05:16.567Z,0
2017-07-14T00:06:16.591Z,0
2017-07-14T00:07:16.704Z,0
2017-07-14T00:08:16.965Z,0
2017-07-14T00:09:16.743Z,0
2017-07-14T00:10:17.337Z,0
2017-07-14T00:11:17.022Z,0
2017-07-14T00:12:16.726Z,0
2017-07-14T00:13:17.183Z,0
2017-07-14T00:14:17.095Z,0
2017-07-14T00:15:17.206Z,0
2017-07-14T00:16:17.487Z,0
2017-07-14T00:17:17.181Z,0
2017-07-14T00:18:17.196Z,0
2017-07-14T00:19:17.205Z,0
2017-07-14T00:20:16.900Z,0
2017-07-14T00:21:16.941Z,0
2017-07-14T00:22:16.623Z,0
2017-07-14T00:23:17.177Z,0
2017-07-14T00:24:17.149Z,0
2017-07-14T00:25:17.134Z,0
2017-07-14T00:26:17.800Z,0
2017-07-14T00:27:17.060Z,0
2017-07-14T00:28:17.080Z,0
2017-07-14T00:29:17.825Z,0
2017-07-14T00:30:17.125Z,0
2017-07-14T00:31:17.833Z,0
2017-07-14T00:32:17.497Z,0
2017-07-14T00:33:17.192Z,0
2017-07-14T00:34:17.533Z,0
2017-07-14T00:35:17.231Z,0
2017-07-14T00:36:17.259Z,0
2017-07-14T00:37:17.276Z,0
2017-07-14T00:38:17.680Z,0
2017-07-14T00:39:17.980Z,0
2017-07-14T00:40:17.999Z,0
2017-07-14T00:41:17.448Z,0
2017-07-14T00:42:17.389Z,0
2017-07-14T00:43:17.413Z,0
2017-07-14T00:44:17.794Z,0
2017-07-14T00:45:18.099Z,0
2017-07-14T00:46:17.811Z,0
2017-07-14T00:47:17.891Z,0
2017-07-14T00:48:17.949Z,0
2017-07-14T00:49:17.948Z,0
2017-07-14T00:50:17.564Z,0
2017-07-14T00:51:17.911Z,0
2017-07-14T00:52:18.252Z,0
2017-07-14T00:53:17.628Z,0
2017-07-14T00:54:17.975Z,0
2017-07-14T00:55:17.996Z,0
2017-07-14T00:56:18.024Z,0
2017-07-14T00:57:17.721Z,0
2017-07-14T00:58:18.063Z,0
2017-07-14T00:59:18.399Z,0
2017-07-14T01:00:18.419Z,0
2017-07-14T01:01:17.805Z,0
2017-07-14T01:02:17.817Z,0
2017-07-14T01:03:18.158Z,0
2017-07-14T01:04:18.178Z,0
2017-07-14T01:05:18.197Z,0
2017-07-14T01:06:18.549Z,0
2017-07-14T01:07:18.566Z,0
2017-07-14T01:08:18.269Z,0
2017-07-14T01:09:17.646Z,0
2017-07-14T01:10:18.312Z,0
2017-07-14T01:11:18.653Z,0
2017-07-14T01:12:18.360Z,0
2017-07-14T01:13:18.696Z,0
2017-07-14T01:14:18.077Z,0
2017-07-14T01:15:18.424Z,0
2017-07-14T01:16:18.120Z,0
2017-07-14T01:17:18.791Z,0
2017-07-14T01:18:18.489Z,0
2017-07-14T01:19:18.837Z,0
2017-07-14T01:20:18.851Z,0
2017-07-14T01:21:18.873Z,0
2017-07-14T01:22:18.250Z,0
2017-07-14T01:23:18.270Z,0
2017-07-14T01:24:18.624Z,0
2017-07-14T01:25:18.973Z,0
2017-07-14T01:26:18.411Z,0
2017-07-14T01:27:18.357Z,0
2017-07-14T01:28:18.381Z,0
2017-07-14T01:29:18.404Z,0
2017-07-14T01:30:18.746Z,0
2017-07-14T01:31:18.771Z,0
2017-07-14T01:32:18.790Z,0
2017-07-14T01:33:18.811Z,0
2017-07-14T01:34:18.837Z,0
2017-07-14T01:35:18.532Z,0
2017-07-14T01:36:18.555Z,0
2017-07-14T01:37:19.257Z,0
2017-07-14T01:38:18.926Z,0
2017-07-14T01:39:19.265Z,0
2017-07-14T01:40:18.645Z,0
2017-07-14T01:41:19.334Z,0
2017-07-14T01:43:19.028Z,0
2017-07-14T01:44:19.052Z,0
2017-07-14T01:45:18.748Z,0
2017-07-14T01:46:19.417Z,0
2017-07-14T01:47:18.793Z,0
2017-07-14T01:48:18.815Z,0
2017-07-14T01:49:18.835Z,0
2017-07-14T01:50:19.180Z,0
2017-07-14T01:51:19.527Z,0
2017-07-14T01:52:19.547Z,0
2017-07-14T01:53:19.346Z,0
2017-07-14T01:54:19.274Z,0
2017-07-14T01:55:19.289Z,0
2017-07-14T01:56:19.310Z,0
2017-07-14T01:57:19.650Z,0
2017-07-14T01:58:18.704Z,0
2017-07-14T01:59:19.383Z,0
2017-07-14T02:00:19.842Z,0
2017-07-14T02:01:19.560Z,0
2017-07-14T02:02:19.556Z,0
2017-07-14T02:03:19.840Z,0
2017-07-14T02:04:19.192Z,0
2017-07-14T02:05:19.314Z,0
2017-07-14T02:06:19.843Z,0
2017-07-14T02:07:19.554Z,0
2017-07-14T02:08:19.893Z,0
2017-07-14T02:09:19.706Z,0
2017-07-14T02:10:19.727Z,0
2017-07-14T02:11:19.629Z,0
2017-07-14T02:12:19.452Z,0
2017-07-14T02:13:19.810Z,0
2017-07-14T02:14:19.696Z,0
2017-07-14T02:15:20.169Z,0
2017-07-14T02:16:19.541Z,0
2017-07-14T02:17:20.181Z,0
2017-07-14T02:18:19.255Z,0
2017-07-14T02:19:19.928Z,0
2017-07-14T02:20:20.320Z,0
2017-07-14T02:21:20.170Z,0
2017-07-14T02:22:19.918Z,0
2017-07-14T02:23:20.242Z,0
2017-07-14T02:24:19.903Z,0
2017-07-14T02:25:20.052Z,0
2017-07-14T02:26:20.381Z,0
2017-07-14T02:27:19.986Z,0
2017-07-14T02:28:20.451Z,0
2017-07-14T02:29:20.339Z,0
2017-07-14T02:30:20.033Z,0
2017-07-14T02:31:19.912Z,0
2017-07-14T02:32:20.073Z,0
2017-07-14T02:33:20.097Z,0
2017-07-14T02:34:20.444Z,0
2017-07-14T02:35:19.822Z,0
2017-07-14T02:36:20.487Z,0
2017-07-14T02:37:19.859Z,0
2017-07-14T02:38:20.206Z,0
2017-07-14T02:39:20.552Z,0
2017-07-14T02:40:20.249Z,0
2017-07-14T02:41:20.590Z,0
2017-07-14T02:42:20.612Z,0
2017-07-14T02:43:20.311Z,0
2017-07-14T02:44:20.009Z,0
2017-07-14T02:45:20.028Z,0
2017-07-14T02:46:20.375Z,0
2017-07-14T02:47:20.723Z,0
2017-07-14T02:48:20.414Z,4
2017-07-14T02:49:19.789Z,4
2017-07-14T02:50:20.459Z,4
2017-07-14T02:51:20.482Z,0
2017-07-14T02:52:20.500Z,4
2017-07-14T02:53:20.206Z,4
2017-07-14T02:54:20.220Z,4
2017-07-14T02:55:20.019Z,4
2017-07-14T02:56:20.908Z,8
2017-07-14T02:57:20.934Z,4
2017-07-14T02:58:20.303Z,4
2017-07-14T02:59:20.651Z,4
2017-07-14T03:00:20.345Z,8
2017-07-14T03:01:20.462Z,8
2017-07-14T03:02:20.714Z,12
2017-07-14T03:03:21.049Z,8
2017-07-14T03:04:21.183Z,12
2017-07-14T03:05:20.449Z,12
2017-07-14T03:06:20.796Z,16
2017-07-14T03:07:20.937Z,16
2017-07-14T03:08:21.399Z,20
2017-07-14T03:09:21.438Z,16
2017-07-14T03:10:20.974Z,20
2017-07-14T03:11:21.519Z,20
2017-07-14T03:12:21.039Z,28
2017-07-14T03:13:21.103Z,24
2017-07-14T03:14:20.993Z,28
2017-07-14T03:15:20.776Z,32
2017-07-14T03:16:21.546Z,32
2017-07-14T03:17:21.399Z,36
2017-07-14T03:18:21.054Z,36
2017-07-14T03:19:20.742Z,40
2017-07-14T03:20:21.107Z,36
2017-07-14T03:21:21.111Z,40
2017-07-14T03:22:21.126Z,40
2017-07-14T03:23:20.826Z,40
2017-07-14T03:24:20.525Z,40
2017-07-14T03:25:21.582Z,44
2017-07-14T03:26:21.216Z,48
2017-07-14T03:27:21.689Z,44
2017-07-14T03:28:21.375Z,48
2017-07-14T03:29:21.088Z,48
2017-07-14T03:30:21.396Z,48
2017-07-14T03:31:21.445Z,52
2017-07-14T03:32:21.751Z,56
2017-07-14T03:33:20.832Z,60
2017-07-14T03:34:20.735Z,60
2017-07-14T03:35:21.561Z,64
2017-07-14T03:36:21.791Z,72
2017-07-14T03:37:21.465Z,76
2017-07-14T03:38:21.467Z,84
2017-07-14T03:39:21.165Z,92
2017-07-14T03:40:21.516Z,100
2017-07-14T03:41:21.656Z,104
2017-07-14T03:42:21.878Z,100
2017-07-14T03:43:21.889Z,100
2017-07-14T03:44:21.266Z,104
2017-07-14T03:45:21.604Z,112
2017-07-14T03:46:21.630Z,116
2017-07-14T03:47:21.987Z,120
2017-07-14T03:48:21.678Z,112
2017-07-14T03:49:21.378Z,112
2017-07-14T03:50:22.039Z,112
2017-07-14T03:51:22.054Z,108
2017-07-14T03:52:21.843Z,108
2017-07-14T03:53:21.849Z,104
2017-07-14T03:54:21.559Z,104
2017-07-14T03:55:22.260Z,104
2017-07-14T03:56:22.212Z,108
2017-07-14T03:57:22.218Z,116
2017-07-14T03:58:22.296Z,116
2017-07-14T03:59:22.219Z,120
2017-07-14T04:00:21.922Z,120
2017-07-14T04:01:21.940Z,116
2017-07-14T04:02:21.967Z,112
2017-07-14T04:03:22.306Z,112
2017-07-14T04:04:22.314Z,116
2017-07-14T04:05:22.024Z,124
2017-07-14T04:06:22.045Z,136
2017-07-14T04:07:22.391Z,140
2017-07-14T04:08:22.174Z,140
2017-07-14T04:09:21.574Z,136
2017-07-14T04:10:21.885Z,136
2017-07-14T04:11:22.472Z,144
2017-07-14T04:12:21.909Z,156
2017-07-14T04:13:22.509Z,160
2017-07-14T04:14:22.718Z,152
2017-07-14T04:15:22.684Z,136
2017-07-14T04:16:22.692Z,132
2017-07-14T04:17:22.595Z,136
2017-07-14T04:18:22.742Z,144
2017-07-14T04:19:21.998Z,148
2017-07-14T04:20:22.788Z,160
2017-07-14T04:21:22.491Z,160
2017-07-14T04:22:22.497Z,164
2017-07-14T04:23:22.075Z,168
2017-07-14T04:24:22.214Z,180
2017-07-14T04:25:22.113Z,188
2017-07-14T04:26:22.456Z,196
2017-07-14T04:27:22.365Z,196
2017-07-14T04:28:22.498Z,188
2017-07-14T04:29:21.875Z,180
2017-07-14T04:30:22.219Z,176
2017-07-14T04:31:22.565Z,172
2017-07-14T04:32:22.580Z,172
2017-07-14T04:33:22.281Z,176
2017-07-14T04:34:22.955Z,176
2017-07-14T04:35:22.646Z,184
2017-07-14T04:36:23.027Z,196
2017-07-14T04:37:22.041Z,204
2017-07-14T04:38:23.156Z,216
2017-07-14T04:39:23.182Z,240
2017-07-14T04:40:22.518Z,276
2017-07-14T04:41:22.767Z,288
2017-07-14T04:42:22.793Z,292
2017-07-14T04:43:23.143Z,328
2017-07-14T04:44:23.156Z,356
2017-07-14T04:45:22.862Z,388
2017-07-14T04:46:23.198Z,412
2017-07-14T04:47:22.697Z,436
2017-07-14T04:48:22.607Z,468
2017-07-14T04:49:23.384Z,516
2017-07-14T04:50:22.956Z,564
2017-07-14T04:51:22.651Z,596
2017-07-14T04:52:23.485Z,608
2017-07-14T04:53:22.699Z,604
2017-07-14T04:54:23.371Z,576
2017-07-14T04:55:23.093Z,536
2017-07-14T04:56:23.081Z,512
2017-07-14T04:57:22.778Z,508
2017-07-14T04:58:23.121Z,536
2017-07-14T04:59:23.316Z,584
2017-07-14T05:00:23.483Z,648
2017-07-14T05:01:23.189Z,660
2017-07-14T05:02:23.331Z,632
2017-07-14T05:03:23.226Z,604
2017-07-14T05:04:22.930Z,572
2017-07-14T05:05:23.020Z,552
2017-07-14T05:06:22.968Z,536
2017-07-14T05:07:22.991Z,516
2017-07-14T05:08:23.651Z,504
2017-07-14T05:09:23.351Z,504
2017-07-14T05:10:23.497Z,516
2017-07-14T05:11:23.192Z,532
2017-07-14T05:12:23.829Z,560
2017-07-14T05:13:23.438Z,592
2017-07-14T05:14:23.159Z,636
2017-07-14T05:15:23.486Z,696
2017-07-14T05:16:23.494Z,708
2017-07-14T05:17:23.731Z,708
2017-07-14T05:18:24.046Z,720
2017-07-14T05:19:23.695Z,760
2017-07-14T05:20:23.581Z,828
2017-07-14T05:21:23.678Z,848
2017-07-14T05:22:22.977Z,876
2017-07-14T05:23:23.315Z,892
2017-07-14T05:24:23.989Z,936
2017-07-14T05:25:24.013Z,964
2017-07-14T05:26:23.469Z,964
2017-07-14T05:27:23.136Z,972
2017-07-14T05:28:23.750Z,956
2017-07-14T05:29:23.974Z,932
2017-07-14T05:30:24.115Z,892
2017-07-14T05:31:23.818Z,844
2017-07-14T05:32:23.831Z,788
2017-07-14T05:33:23.851Z,732
2017-07-14T05:34:24.217Z,688
2017-07-14T05:35:23.358Z,644
2017-07-14T05:36:24.237Z,616
2017-07-14T05:37:24.257Z,656
2017-07-14T05:38:23.515Z,688
2017-07-14T05:39:24.298Z,704
2017-07-14T05:40:23.678Z,712
2017-07-14T05:41:23.821Z,724
2017-07-14T05:42:24.039Z,732
2017-07-14T05:43:24.441Z,748
2017-07-14T05:44:23.889Z,760
2017-07-14T05:45:24.455Z,768
2017-07-14T05:46:24.136Z,800
2017-07-14T05:47:23.825Z,832
2017-07-14T05:48:24.510Z,816
2017-07-14T05:49:23.877Z,780
2017-07-14T05:50:23.982Z,708
2017-07-14T05:51:24.251Z,636
2017-07-14T05:52:24.357Z,568
2017-07-14T05:53:23.635Z,588
2017-07-14T05:54:24.625Z,612
2017-07-14T05:55:24.635Z,636
2017-07-14T05:56:24.019Z,600
2017-07-14T05:57:24.359Z,588
2017-07-14T05:58:24.059Z,596
2017-07-14T05:59:24.405Z,604
2017-07-14T06:00:24.430Z,624
2017-07-14T06:01:24.240Z,660
2017-07-14T06:02:24.465Z,720
2017-07-14T06:03:24.297Z,784
2017-07-14T06:04:24.269Z,852
2017-07-14T06:05:24.852Z,876
2017-07-14T06:06:24.997Z,844
2017-07-14T06:07:24.707Z,856
2017-07-14T06:08:25.043Z,860
2017-07-14T06:09:24.652Z,892
2017-07-14T06:10:24.960Z,872
2017-07-14T06:11:24.784Z,864
2017-07-14T06:12:24.484Z,904
2017-07-14T06:13:25.022Z,936
2017-07-14T06:14:24.722Z,960
2017-07-14T06:15:24.752Z,980
2017-07-14T06:16:25.092Z,964
2017-07-14T06:17:24.471Z,956
2017-07-14T06:18:24.160Z,972
2017-07-14T06:19:25.071Z,972
2017-07-14T06:20:25.385Z,1012
2017-07-14T06:21:24.870Z,1092
2017-07-14T06:22:24.888Z,1184
2017-07-14T06:23:24.913Z,1188
2017-07-14T06:24:24.956Z,1120
2017-07-14T06:25:24.671Z,1000
2017-07-14T06:26:24.988Z,944
2017-07-14T06:27:25.326Z,944
2017-07-14T06:28:25.353Z,892
2017-07-14T06:29:25.365Z,832
2017-07-14T06:30:25.385Z,808
2017-07-14T06:31:24.759Z,744
2017-07-14T06:32:25.111Z,648
2017-07-14T06:33:25.137Z,608
2017-07-14T06:34:25.153Z,696
2017-07-14T06:35:25.496Z,824
2017-07-14T06:36:25.195Z,844
2017-07-14T06:37:25.741Z,808
2017-07-14T06:38:25.568Z,820
2017-07-14T06:39:25.264Z,900
2017-07-14T06:40:25.606Z,912
2017-07-14T06:41:25.628Z,892
2017-07-14T06:42:25.001Z,872
2017-07-14T06:43:25.666Z,892
2017-07-14T06:44:25.047Z,928
2017-07-14T06:45:25.711Z,992
2017-07-14T06:46:25.412Z,1064
2017-07-14T06:47:25.435Z,1144
2017-07-14T06:48:25.460Z,1208
2017-07-14T06:49:25.487Z,1240
2017-07-14T06:50:25.195Z,1284
2017-07-14T06:51:25.845Z,1332
2017-07-14T06:52:25.806Z,1400
2017-07-14T06:53:25.891Z,1484
2017-07-14T06:54:25.605Z,1556
2017-07-14T06:55:25.618Z,1628
2017-07-14T06:56:25.310Z,1660
2017-07-14T06:57:25.177Z,1636
2017-07-14T06:58:25.673Z,1552
2017-07-14T06:59:25.372Z,1440
2017-07-14T07:00:25.486Z,1340
2017-07-14T07:01:25.533Z,1256
2017-07-14T07:02:25.435Z,1188
2017-07-14T07:03:25.786Z,1132
2017-07-14T07:04:25.485Z,1092
2017-07-14T07:05:25.866Z,1056
2017-07-14T07:06:26.175Z,1044
2017-07-14T07:07:25.874Z,1024
2017-07-14T07:08:25.894Z,1016
2017-07-14T07:09:25.922Z,1036
2017-07-14T07:10:25.943Z,1084
2017-07-14T07:11:25.976Z,1152
2017-07-14T07:12:26.307Z,1208
2017-07-14T07:13:26.004Z,1236
2017-07-14T07:14:26.355Z,1268
2017-07-14T07:15:26.387Z,1324
2017-07-14T07:16:26.068Z,1384
2017-07-14T07:17:26.415Z,1428
2017-07-14T07:18:26.119Z,1424
2017-07-14T07:19:26.148Z,1424
2017-07-14T07:20:26.161Z,1500
2017-07-14T07:21:26.564Z,1640
2017-07-14T07:22:25.557Z,1808
2017-07-14T07:23:25.578Z,1960
2017-07-14T07:24:26.574Z,2088
2017-07-14T07:25:25.945Z,2208
2017-07-14T07:26:26.293Z,2300
2017-07-14T07:27:26.637Z,2324
2017-07-14T07:28:26.336Z,2272
2017-07-14T07:29:26.499Z,2180
2017-07-14T07:30:26.495Z,2068
2017-07-14T07:31:26.823Z,1956
2017-07-14T07:32:26.527Z,1880
2017-07-14T07:33:26.771Z,1832
2017-07-14T07:34:26.797Z,1816
2017-07-14T07:35:26.171Z,1832
2017-07-14T07:36:26.594Z,1828
2017-07-14T07:37:26.216Z,1784
2017-07-14T07:38:25.915Z,1736
2017-07-14T07:39:26.910Z,1664
2017-07-14T07:40:26.743Z,1580
2017-07-14T07:41:26.718Z,1488
2017-07-14T07:42:26.774Z,1416
2017-07-14T07:43:26.777Z,1340
2017-07-14T07:44:26.867Z,1276
2017-07-14T07:45:26.825Z,1248
2017-07-14T07:46:27.163Z,1276
2017-07-14T07:47:26.965Z,1332
2017-07-14T07:48:27.246Z,1408
2017-07-14T07:49:26.811Z,1512
2017-07-14T07:50:26.511Z,1588
2017-07-14T07:51:27.178Z,1560
2017-07-14T07:52:26.233Z,1452
2017-07-14T07:53:27.230Z,1308
2017-07-14T07:54:26.629Z,1232
2017-07-14T07:55:26.948Z,1348
2017-07-14T07:56:26.970Z,1612
2017-07-14T07:57:26.993Z,1900
2017-07-14T07:58:26.805Z,1976
2017-07-14T07:59:27.105Z,1968
2017-07-14T08:00:27.461Z,2044
2017-07-14T08:01:27.141Z,2268
2017-07-14T08:02:26.616Z,2576
2017-07-14T08:03:27.149Z,2796
2017-07-14T08:04:27.263Z,2932
2017-07-14T08:05:27.177Z,3032
2017-07-14T08:06:27.003Z,2940
2017-07-14T08:07:26.907Z,2884
2017-07-14T08:08:27.453Z,2760
2017-07-14T08:09:27.273Z,2592
2017-07-14T08:10:26.970Z,2368
2017-07-14T08:11:27.314Z,2204
2017-07-14T08:12:27.747Z,2064
2017-07-14T08:13:27.363Z,1900
2017-07-14T08:14:27.387Z,1716
2017-07-14T08:15:27.738Z,1504
2017-07-14T08:16:27.438Z,1188
2017-07-14T08:17:27.142Z,996
2017-07-14T08:18:27.489Z,864
2017-07-14T08:19:27.511Z,772
2017-07-14T08:20:27.528Z,724
2017-07-14T08:21:27.234Z,724
2017-07-14T08:22:26.927Z,744
2017-07-14T08:23:26.953Z,792
2017-07-14T08:24:27.621Z,1008
2017-07-14T08:25:27.644Z,1284
2017-07-14T08:26:27.667Z,1536
2017-07-14T08:27:28.017Z,1728
2017-07-14T08:28:27.711Z,1896
2017-07-14T08:29:28.068Z,1972
2017-07-14T08:30:27.518Z,2100
2017-07-14T08:31:27.149Z,2172
2017-07-14T08:32:27.811Z,2156
2017-07-14T08:33:28.052Z,2096
2017-07-14T08:34:28.244Z,2048
2017-07-14T08:35:27.905Z,2004
2017-07-14T08:36:27.579Z,1920
2017-07-14T08:37:28.259Z,1840
2017-07-14T08:38:27.954Z,1856
2017-07-14T08:39:27.983Z,1904
2017-07-14T08:40:27.680Z,1980
2017-07-14T08:41:28.407Z,1900
2017-07-14T08:42:28.176Z,2096
2017-07-14T08:43:27.854Z,1776
2017-07-14T08:44:28.431Z,1824
2017-07-14T08:45:28.120Z,1816
2017-07-14T08:46:28.148Z,1452
2017-07-14T08:47:28.495Z,1316
2017-07-14T08:48:28.514Z,1444
2017-07-14T08:49:28.215Z,1416
2017-07-14T08:50:28.572Z,1592
2017-07-14T08:51:27.816Z,1364
2017-07-14T08:52:28.043Z,1260
2017-07-14T08:53:28.314Z,1188
2017-07-14T08:54:28.688Z,924
2017-07-14T08:55:28.041Z,952
2017-07-14T08:56:28.064Z,884
2017-07-14T08:57:28.736Z,780
2017-07-14T08:58:28.761Z,748
2017-07-14T08:59:28.466Z,812
2017-07-14T09:00:28.826Z,768
2017-07-14T09:01:28.512Z,896
2017-07-14T09:02:28.537Z,1004
2017-07-14T09:03:28.235Z,996
2017-07-14T09:04:28.903Z,988
2017-07-14T09:05:28.662Z,980
2017-07-14T09:06:28.307Z,988
2017-07-14T09:07:28.981Z,992
2017-07-14T09:08:29.010Z,996
2017-07-14T09:09:28.704Z,996
2017-07-14T09:10:28.727Z,1000
2017-07-14T09:11:28.759Z,1008
2017-07-14T09:12:28.457Z,1016
2017-07-14T09:13:28.478Z,1032
2017-07-14T09:14:28.504Z,1068
2017-07-14T09:15:28.855Z,1108
2017-07-14T09:16:28.556Z,1124
2017-07-14T09:17:28.254Z,1124
2017-07-14T09:18:28.929Z,1128
2017-07-14T09:19:29.282Z,1148
2017-07-14T09:20:28.332Z,1172
2017-07-14T09:21:28.999Z,1216
2017-07-14T09:22:29.021Z,1284
2017-07-14T09:23:28.407Z,1392
2017-07-14T09:24:29.395Z,1780
2017-07-14T09:25:29.202Z,1876
2017-07-14T09:26:29.241Z,2012
2017-07-14T09:27:29.152Z,2332
2017-07-14T09:28:29.116Z,2516
2017-07-14T09:29:29.301Z,2784
2017-07-14T09:30:28.905Z,2700
2017-07-14T09:31:29.251Z,2588
2017-07-14T09:32:29.599Z,2840
2017-07-14T09:33:29.654Z,2924
2017-07-14T09:34:28.684Z,3012
2017-07-14T09:35:29.031Z,3040
2017-07-14T09:36:29.378Z,3136
2017-07-14T09:37:29.082Z,3356
2017-07-14T09:38:29.757Z,3304
2017-07-14T09:39:29.454Z,3368
2017-07-14T09:40:29.160Z,3040
2017-07-14T09:41:29.188Z,3256
2017-07-14T09:42:29.857Z,3488
2017-07-14T09:43:29.567Z,3356
2017-07-14T09:44:29.910Z,2656
2017-07-14T09:45:29.609Z,2124
2017-07-14T09:46:29.954Z,1724
2017-07-14T09:47:29.661Z,1568
2017-07-14T09:48:29.686Z,1408
2017-07-14T09:49:30.046Z,1340
2017-07-14T09:50:29.841Z,1248
2017-07-14T09:51:29.767Z,1172
2017-07-14T09:52:29.795Z,1116
2017-07-14T09:53:30.144Z,1148
2017-07-14T09:54:29.521Z,1140
2017-07-14T09:55:29.878Z,1272
2017-07-14T09:56:30.340Z,1588
2017-07-14T09:57:29.926Z,1868
2017-07-14T09:58:29.676Z,2332
2017-07-14T09:59:29.742Z,2544
2017-07-14T10:00:30.393Z,2432
2017-07-14T10:01:30.037Z,2384
2017-07-14T10:02:30.379Z,2896
2017-07-14T10:03:30.420Z,2624
2017-07-14T10:04:29.795Z,2728
2017-07-14T10:05:30.151Z,2996
2017-07-14T10:06:29.841Z,2600
2017-07-14T10:07:30.597Z,2284
2017-07-14T10:08:29.917Z,2156
2017-07-14T10:09:30.271Z,2172
2017-07-14T10:10:30.267Z,2312
2017-07-14T10:11:30.619Z,2544
2017-07-14T10:12:30.647Z,1916
2017-07-14T10:13:30.675Z,1416
2017-07-14T10:14:30.377Z,1044
2017-07-14T10:15:30.086Z,904
2017-07-14T10:16:30.763Z,820
2017-07-14T10:17:30.779Z,752
2017-07-14T10:18:30.491Z,728
2017-07-14T10:19:30.851Z,728
2017-07-14T10:20:30.547Z,868
2017-07-14T10:21:30.907Z,1032
2017-07-14T10:22:30.912Z,1076
2017-07-14T10:23:30.941Z,776
2017-07-14T10:24:30.652Z,652
2017-07-14T10:25:30.675Z,640
2017-07-14T10:26:31.021Z,684
2017-07-14T10:27:30.406Z,748
2017-07-14T10:28:31.076Z,828
2017-07-14T10:29:30.906Z,880
2017-07-14T10:30:30.595Z,1008
2017-07-14T10:31:30.313Z,1144
2017-07-14T10:32:30.885Z,1324
2017-07-14T10:33:31.215Z,2176
2017-07-14T10:34:31.246Z,2232
2017-07-14T10:35:30.742Z,2076
2017-07-14T10:36:30.980Z,2072
2017-07-14T10:37:31.119Z,2240
2017-07-14T10:38:30.780Z,2368
2017-07-14T10:39:31.552Z,2652
2017-07-14T10:40:30.760Z,3044
2017-07-14T10:41:31.435Z,2840
2017-07-14T10:42:31.143Z,3892
2017-07-14T10:43:31.007Z,3460
2017-07-14T10:44:31.191Z,3300
2017-07-14T10:45:31.625Z,3060
2017-07-14T10:46:31.572Z,3892
2017-07-14T10:47:31.396Z,3004
2017-07-14T10:48:31.393Z,2340
2017-07-14T10:49:31.334Z,2520
2017-07-14T10:50:31.357Z,2660
2017-07-14T10:51:31.712Z,3504
2017-07-14T10:52:31.740Z,2824
2017-07-14T10:53:31.277Z,1852
2017-07-14T10:54:31.250Z,1936
2017-07-14T10:55:31.495Z,2228
2017-07-14T10:56:31.615Z,3168
2017-07-14T10:57:31.556Z,3108
2017-07-14T10:58:31.261Z,2848
2017-07-14T10:59:31.287Z,1876
2017-07-14T11:00:31.641Z,2056
2017-07-14T11:01:31.668Z,2220
2017-07-14T11:02:31.698Z,2876
2017-07-14T11:03:31.403Z,3360
2017-07-14T11:04:31.862Z,3652
2017-07-14T11:05:31.777Z,3904
2017-07-14T11:06:31.913Z,4696
2017-07-14T11:07:31.290Z,5112
2017-07-14T11:08:31.862Z,5040
2017-07-14T11:09:31.575Z,4292
2017-07-14T11:10:31.926Z,4748
2017-07-14T11:11:32.270Z,4752
2017-07-14T11:12:31.775Z,5304
2017-07-14T11:13:31.745Z,5344
2017-07-14T11:14:31.388Z,5312
2017-07-14T11:15:32.382Z,4380
2017-07-14T11:16:31.775Z,4404
2017-07-14T11:17:31.799Z,4052
2017-07-14T11:18:32.478Z,4380
2017-07-14T11:19:32.177Z,4988
2017-07-14T11:20:32.208Z,4728
2017-07-14T11:21:31.910Z,4636
2017-07-14T11:22:32.055Z,5076
2017-07-14T11:23:32.293Z,5544
2017-07-14T11:24:32.647Z,5492
2017-07-14T11:25:32.765Z,5308
2017-07-14T11:26:32.510Z,5008
2017-07-14T11:27:32.116Z,4296
2017-07-14T11:28:32.284Z,4396
2017-07-14T11:29:32.468Z,4564
2017-07-14T11:30:32.498Z,4504
2017-07-14T11:31:32.297Z,4564
2017-07-14T11:32:31.997Z,4312
2017-07-14T11:33:32.586Z,4348
2017-07-14T11:34:32.619Z,4924
2017-07-14T11:35:32.966Z,4940
2017-07-14T11:36:33.000Z,6004
2017-07-14T11:37:33.021Z,5084
2017-07-14T11:38:32.733Z,4944
2017-07-14T11:39:33.085Z,4368
2017-07-14T11:40:33.113Z,3608
2017-07-14T11:41:32.501Z,2792
2017-07-14T11:42:33.173Z,2152
2017-07-14T11:43:32.883Z,1804
2017-07-14T11:44:32.753Z,1684
2017-07-14T11:45:32.621Z,1416
2017-07-14T11:46:32.326Z,1320
2017-07-14T11:47:33.004Z,1312
2017-07-14T11:48:32.707Z,1380
2017-07-14T11:49:33.065Z,1400
2017-07-14T11:50:33.129Z,1528
2017-07-14T11:51:32.797Z,1644
2017-07-14T11:52:33.470Z,1804
2017-07-14T11:53:33.670Z,1736
2017-07-14T11:54:33.337Z,1556
2017-07-14T11:55:33.365Z,1512
2017-07-14T11:56:33.373Z,1700
2017-07-14T11:57:33.533Z,1616
2017-07-14T11:58:33.080Z,1336
2017-07-14T11:59:33.219Z,1036
2017-07-14T12:00:33.751Z,1020
2017-07-14T12:01:33.753Z,1192
2017-07-14T12:02:33.449Z,1252
2017-07-14T12:03:32.832Z,1104
2017-07-14T12:04:33.189Z,1092
2017-07-14T12:05:33.548Z,1108
2017-07-14T12:06:33.569Z,1172
2017-07-14T12:07:33.068Z,1296
2017-07-14T12:08:33.629Z,1468
2017-07-14T12:09:33.666Z,1800
2017-07-14T12:10:33.042Z,2340
2017-07-14T12:11:34.116Z,3088
2017-07-14T12:12:33.426Z,3800
2017-07-14T12:13:33.779Z,4468
2017-07-14T12:14:33.810Z,3424
2017-07-14T12:15:33.841Z,2772
2017-07-14T12:16:33.543Z,2564
2017-07-14T12:17:34.009Z,2348
2017-07-14T12:18:34.019Z,1740
2017-07-14T12:19:33.638Z,1388
2017-07-14T12:20:34.471Z,1104
2017-07-14T12:21:34.018Z,976
2017-07-14T12:22:34.362Z,948
2017-07-14T12:23:33.431Z,960
2017-07-14T12:24:34.230Z,972
2017-07-14T12:25:34.140Z,948
2017-07-14T12:26:34.541Z,908
2017-07-14T12:27:34.199Z,868
2017-07-14T12:28:34.655Z,832
2017-07-14T12:29:34.259Z,864
2017-07-14T12:30:34.622Z,940
2017-07-14T12:31:34.758Z,1012
2017-07-14T12:32:34.347Z,1048
2017-07-14T12:33:34.832Z,1040
2017-07-14T12:34:34.199Z,1040
2017-07-14T12:35:34.752Z,1032
2017-07-14T12:36:34.500Z,804
2017-07-14T12:37:34.821Z,668
2017-07-14T12:38:34.843Z,700
2017-07-14T12:39:34.233Z,804
2017-07-14T12:40:34.261Z,916
2017-07-14T12:41:35.063Z,908
2017-07-14T12:42:34.438Z,952
2017-07-14T12:43:34.997Z,1020
2017-07-14T12:44:35.023Z,956
2017-07-14T12:45:34.145Z,812
2017-07-14T12:46:35.091Z,740
2017-07-14T12:47:34.479Z,828
2017-07-14T12:48:34.819Z,1020
2017-07-14T12:49:35.074Z,1336
2017-07-14T12:50:34.234Z,1684
2017-07-14T12:51:35.001Z,2080
2017-07-14T12:52:35.490Z,2476
2017-07-14T12:53:34.888Z,2760
2017-07-14T12:54:34.685Z,3188
2017-07-14T12:55:34.707Z,5960
2017-07-14T12:56:34.736Z,5704
2017-07-14T12:57:35.083Z,5036
2017-07-14T12:58:34.792Z,6576
2017-07-14T12:59:34.824Z,5360
2017-07-14T13:00:35.495Z,3816
2017-07-14T13:01:35.213Z,3804
2017-07-14T13:02:35.554Z,3728
2017-07-14T13:03:34.619Z,3668
2017-07-14T13:04:34.971Z,3764
2017-07-14T13:05:35.642Z,3156
2017-07-14T13:06:35.357Z,1968
2017-07-14T13:07:35.826Z,1608
2017-07-14T13:08:35.216Z,1480
2017-07-14T13:09:35.117Z,1296
2017-07-14T13:10:35.922Z,1216
2017-07-14T13:11:35.831Z,1200
2017-07-14T13:12:35.535Z,1136
2017-07-14T13:13:35.564Z,1080
2017-07-14T13:14:35.908Z,1128
2017-07-14T13:15:35.701Z,1096
2017-07-14T13:16:35.109Z,1136
2017-07-14T13:17:35.681Z,1296
2017-07-14T13:18:35.387Z,1576
2017-07-14T13:19:35.748Z,1940
2017-07-14T13:20:36.097Z,2352
2017-07-14T13:21:35.476Z,5152
2017-07-14T13:22:35.827Z,4520
2017-07-14T13:23:35.212Z,5052
2017-07-14T13:24:35.889Z,4756
2017-07-14T13:25:35.918Z,4088
2017-07-14T13:26:36.272Z,3672
2017-07-14T13:27:35.332Z,3760
2017-07-14T13:28:36.325Z,3612
2017-07-14T13:29:36.035Z,3500
2017-07-14T13:30:36.393Z,3284
2017-07-14T13:31:36.097Z,2572
2017-07-14T13:32:36.445Z,1980
2017-07-14T13:33:36.485Z,1584
2017-07-14T13:34:36.523Z,1204
2017-07-14T13:35:36.216Z,960
2017-07-14T13:36:36.251Z,784
2017-07-14T13:37:36.274Z,720
2017-07-14T13:38:36.306Z,804
2017-07-14T13:39:36.657Z,1100
2017-07-14T13:40:36.359Z,1480
2017-07-14T13:41:36.390Z,1980
2017-07-14T13:42:36.768Z,2848
2017-07-14T13:43:36.482Z,3900
2017-07-14T13:44:35.840Z,4252
2017-07-14T13:45:36.512Z,5228
2017-07-14T13:46:36.538Z,6076
2017-07-14T13:47:37.009Z,6080
2017-07-14T13:48:36.275Z,5592